aviador You're here:

SBCG Decoded Metar

CAMPO GRANDE in BRAZIL
Report Time2017-12-11 05:00:00
UTC Time2017-12-11 05:34:11
Flight Rules vfr VFR
Wind360° at 02 kt
W.Decomp.*RWY 06: 1.4 kt HW 1.4 kt LCW
Visibility9999 m
Phenomena:N/A
Clouds:N/A
Expected CloudBase > 400 ft AGL from Temp-Dew spread
CeilingNone
Temp21°C (ISA +10)
Dew Point20°C (94% RH)
QNH1009 hPa
Density Alt3,442 ft
Elevation1,860 ft
Report Wrong Elevation
Raw Report
METAR SBCG 110500Z 36002KT CAVOK 21/20 Q1009=

Extra information for SBCG:More info

Metar Taf Metar & Taf Last 4 Metars F.Rules Stats Wind Profile Meteogram Temp Stats Airport Information Weather charts Add Link Nearby VenuesMetar ALERT Operation Metar Decoded Social comments